sensor_id;sensor_type;location;lat;lon;timestamp;P1;durP1;ratioP1;P2;durP2;ratioP2
71296;SDS011;59082;50.658;4.608;2022-09-03T00:01:42;2.28;;;1.27;;
71296;SDS011;59082;50.658;4.608;2022-09-03T00:07:22;3.85;;;1.13;;
71296;SDS011;59082;50.658;4.608;2022-09-03T00:09:59;2.28;;;0.95;;
71296;SDS011;59082;50.658;4.608;2022-09-03T00:12:31;2.25;;;1.10;;
71296;SDS011;59082;50.658;4.608;2022-09-03T00:17:44;2.10;;;1.13;;
71296;SDS011;59082;50.658;4.608;2022-09-03T00:22:45;2.30;;;1.30;;
71296;SDS011;59082;50.658;4.608;2022-09-03T00:25:20;2.72;;;1.15;;
71296;SDS011;59082;50.658;4.608;2022-09-03T00:27:50;1.30;;;0.73;;
71296;SDS011;59082;50.658;4.608;2022-09-03T00:30:19;2.60;;;1.10;;
71296;SDS011;59082;50.658;4.608;2022-09-03T00:33:00;1.83;;;0.85;;
71296;SDS011;59082;50.658;4.608;2022-09-03T00:38:07;1.52;;;0.80;;
71296;SDS011;59082;50.658;4.608;2022-09-03T00:49:28;3.22;;;1.13;;
71296;SDS011;59082;50.658;4.608;2022-09-03T01:00:14;1.27;;;0.80;;
71296;SDS011;59082;50.658;4.608;2022-09-03T01:13:44;3.20;;;1.05;;
71296;SDS011;59082;50.658;4.608;2022-09-03T01:21:44;2.13;;;1.10;;
71296;SDS011;59082;50.658;4.608;2022-09-03T01:27:44;1.38;;;0.93;;
71296;SDS011;59082;50.658;4.608;2022-09-03T01:30:14;3.63;;;1.00;;
71296;SDS011;59082;50.658;4.608;2022-09-03T01:35:27;1.55;;;0.90;;
71296;SDS011;59082;50.658;4.608;2022-09-03T01:38:21;2.33;;;1.20;;
71296;SDS011;59082;50.658;4.608;2022-09-03T01:55:47;1.30;;;1.20;;
71296;SDS011;59082;50.658;4.608;2022-09-03T02:01:29;1.95;;;1.23;;
71296;SDS011;59082;50.658;4.608;2022-09-03T02:04:00;3.50;;;1.55;;
71296;SDS011;59082;50.658;4.608;2022-09-03T02:06:27;3.17;;;1.40;;
71296;SDS011;59082;50.658;4.608;2022-09-03T02:08:55;2.20;;;1.40;;
71296;SDS011;59082;50.658;4.608;2022-09-03T02:11:21;3.30;;;1.92;;
71296;SDS011;59082;50.658;4.608;2022-09-03T02:13:48;1.50;;;1.20;;
71296;SDS011;59082;50.658;4.608;2022-09-03T02:16:20;3.53;;;1.30;;
71296;SDS011;59082;50.658;4.608;2022-09-03T02:18:55;1.70;;;1.10;;
71296;SDS011;59082;50.658;4.608;2022-09-03T02:21:23;1.75;;;1.40;;
71296;SDS011;59082;50.658;4.608;2022-09-03T02:23:51;1.57;;;1.07;;
71296;SDS011;59082;50.658;4.608;2022-09-03T02:26:19;3.70;;;1.88;;
71296;SDS011;59082;50.658;4.608;2022-09-03T02:28:48;1.92;;;1.48;;
71296;SDS011;59082;50.658;4.608;2022-09-03T02:31:14;2.28;;;1.20;;
71296;SDS011;59082;50.658;4.608;2022-09-03T02:33:41;2.80;;;1.47;;
71296;SDS011;59082;50.658;4.608;2022-09-03T02:36:10;1.98;;;1.13;;
71296;SDS011;59082;50.658;4.608;2022-09-03T02:38:36;1.95;;;1.30;;
71296;SDS011;59082;50.658;4.608;2022-09-03T02:41:02;4.23;;;1.60;;
71296;SDS011;59082;50.658;4.608;2022-09-03T02:46:09;2.80;;;1.00;;
71296;SDS011;59082;50.658;4.608;2022-09-03T02:48:39;2.57;;;1.23;;
71296;SDS011;59082;50.658;4.608;2022-09-03T02:51:04;5.03;;;1.73;;
71296;SDS011;59082;50.658;4.608;2022-09-03T02:53:30;3.50;;;1.50;;
71296;SDS011;59082;50.658;4.608;2022-09-03T02:56:01;3.27;;;2.10;;
71296;SDS011;59082;50.658;4.608;2022-09-03T02:58:27;4.68;;;2.30;;
71296;SDS011;59082;50.658;4.608;2022-09-03T03:00:55;4.43;;;2.55;;
71296;SDS011;59082;50.658;4.608;2022-09-03T03:03:21;2.97;;;2.67;;
71296;SDS011;59082;50.658;4.608;2022-09-03T03:05:51;3.63;;;2.97;;
71296;SDS011;59082;50.658;4.608;2022-09-03T03:08:20;6.78;;;2.92;;
71296;SDS011;59082;50.658;4.608;2022-09-03T03:10:50;3.58;;;3.25;;
71296;SDS011;59082;50.658;4.608;2022-09-03T03:13:16;3.40;;;3.10;;
71296;SDS011;59082;50.658;4.608;2022-09-03T03:15:42;5.27;;;3.17;;
71296;SDS011;59082;50.658;4.608;2022-09-03T03:18:08;4.30;;;3.22;;
71296;SDS011;59082;50.658;4.608;2022-09-03T03:20:36;3.03;;;2.73;;
71296;SDS011;59082;50.658;4.608;2022-09-03T03:23:03;4.45;;;3.25;;
71296;SDS011;59082;50.658;4.608;2022-09-03T03:25:39;4.75;;;3.88;;
71296;SDS011;59082;50.658;4.608;2022-09-03T03:28:04;3.20;;;2.90;;
71296;SDS011;59082;50.658;4.608;2022-09-03T03:30:31;8.00;;;3.25;;
71296;SDS011;59082;50.658;4.608;2022-09-03T03:32:58;5.33;;;3.83;;
71296;SDS011;59082;50.658;4.608;2022-09-03T03:35:24;3.70;;;3.40;;
71296;SDS011;59082;50.658;4.608;2022-09-03T03:37:49;4.30;;;3.60;;
71296;SDS011;59082;50.658;4.608;2022-09-03T03:40:15;4.33;;;3.97;;
71296;SDS011;59082;50.658;4.608;2022-09-03T03:42:41;6.00;;;3.80;;
71296;SDS011;59082;50.658;4.608;2022-09-03T03:45:07;4.50;;;3.80;;
71296;SDS011;59082;50.658;4.608;2022-09-03T03:47:36;4.22;;;3.85;;
71296;SDS011;59082;50.658;4.608;2022-09-03T03:50:02;3.67;;;3.38;;
71296;SDS011;59082;50.658;4.608;2022-09-03T03:52:28;5.90;;;4.15;;
71296;SDS011;59082;50.658;4.608;2022-09-03T03:54:54;4.83;;;3.57;;
71296;SDS011;59082;50.658;4.608;2022-09-03T03:57:20;4.45;;;3.72;;
71296;SDS011;59082;50.658;4.608;2022-09-03T03:59:46;4.68;;;3.95;;
71296;SDS011;59082;50.658;4.608;2022-09-03T04:02:12;4.33;;;3.93;;
71296;SDS011;59082;50.658;4.608;2022-09-03T04:04:38;4.88;;;4.43;;
71296;SDS011;59082;50.658;4.608;2022-09-03T04:07:04;4.90;;;4.40;;
71296;SDS011;59082;50.658;4.608;2022-09-03T04:09:30;9.68;;;4.53;;
71296;SDS011;59082;50.658;4.608;2022-09-03T04:11:56;5.20;;;4.70;;
71296;SDS011;59082;50.658;4.608;2022-09-03T04:14:25;7.05;;;4.53;;
71296;SDS011;59082;50.658;4.608;2022-09-03T04:16:53;6.82;;;4.57;;
71296;SDS011;59082;50.658;4.608;2022-09-03T04:19:19;5.80;;;4.60;;
71296;SDS011;59082;50.658;4.608;2022-09-03T04:21:45;5.75;;;4.13;;
71296;SDS011;59082;50.658;4.608;2022-09-03T04:24:11;5.00;;;3.80;;
71296;SDS011;59082;50.658;4.608;2022-09-03T04:26:37;4.47;;;4.07;;
71296;SDS011;59082;50.658;4.608;2022-09-03T04:29:04;4.60;;;4.13;;
71296;SDS011;59082;50.658;4.608;2022-09-03T04:31:31;4.60;;;4.20;;
71296;SDS011;59082;50.658;4.608;2022-09-03T04:33:57;10.10;;;4.07;;
71296;SDS011;59082;50.658;4.608;2022-09-03T04:36:24;3.88;;;3.47;;
71296;SDS011;59082;50.658;4.608;2022-09-03T04:38:51;4.57;;;3.80;;
71296;SDS011;59082;50.658;4.608;2022-09-03T04:41:19;6.00;;;4.07;;
71296;SDS011;59082;50.658;4.608;2022-09-03T04:43:49;4.20;;;3.80;;
71296;SDS011;59082;50.658;4.608;2022-09-03T04:46:16;7.22;;;5.10;;
71296;SDS011;59082;50.658;4.608;2022-09-03T04:48:43;5.72;;;5.22;;
71296;SDS011;59082;50.658;4.608;2022-09-03T04:51:13;7.35;;;5.60;;
71296;SDS011;59082;50.658;4.608;2022-09-03T04:53:41;8.73;;;6.03;;
71296;SDS011;59082;50.658;4.608;2022-09-03T04:56:12;7.30;;;6.00;;
71296;SDS011;59082;50.658;4.608;2022-09-03T04:58:39;10.18;;;6.00;;
71296;SDS011;59082;50.658;4.608;2022-09-03T05:01:06;8.57;;;6.13;;
71296;SDS011;59082;50.658;4.608;2022-09-03T05:03:33;7.97;;;6.03;;
71296;SDS011;59082;50.658;4.608;2022-09-03T05:05:58;8.17;;;5.00;;
71296;SDS011;59082;50.658;4.608;2022-09-03T05:08:24;6.17;;;5.50;;
71296;SDS011;59082;50.658;4.608;2022-09-03T05:10:56;6.82;;;5.00;;
71296;SDS011;59082;50.658;4.608;2022-09-03T05:13:25;6.13;;;5.03;;
71296;SDS011;59082;50.658;4.608;2022-09-03T05:16:01;9.02;;;5.40;;
71296;SDS011;59082;50.658;4.608;2022-09-03T05:18:28;6.32;;;5.03;;
71296;SDS011;59082;50.658;4.608;2022-09-03T05:21:00;5.87;;;4.90;;
71296;SDS011;59082;50.658;4.608;2022-09-03T05:23:31;5.72;;;4.78;;
71296;SDS011;59082;50.658;4.608;2022-09-03T05:26:00;5.45;;;4.93;;
71296;SDS011;59082;50.658;4.608;2022-09-03T05:28:28;7.72;;;4.65;;
71296;SDS011;59082;50.658;4.608;2022-09-03T05:31:01;4.55;;;4.03;;
71296;SDS011;59082;50.658;4.608;2022-09-03T05:33:32;3.70;;;3.37;;
71296;SDS011;59082;50.658;4.608;2022-09-03T05:36:00;5.57;;;4.25;;
71296;SDS011;59082;50.658;4.608;2022-09-03T05:38:27;4.97;;;4.18;;
71296;SDS011;59082;50.658;4.608;2022-09-03T05:40:53;4.60;;;3.97;;
71296;SDS011;59082;50.658;4.608;2022-09-03T05:43:26;3.65;;;3.28;;
71296;SDS011;59082;50.658;4.608;2022-09-03T05:46:11;4.40;;;4.00;;
71296;SDS011;59082;50.658;4.608;2022-09-03T05:48:38;5.70;;;3.42;;
71296;SDS011;59082;50.658;4.608;2022-09-03T05:51:06;4.70;;;4.22;;
71296;SDS011;59082;50.658;4.608;2022-09-03T05:53:34;3.73;;;3.33;;
71296;SDS011;59082;50.658;4.608;2022-09-03T05:56:02;3.65;;;3.20;;
71296;SDS011;59082;50.658;4.608;2022-09-03T05:58:33;4.03;;;3.53;;
71296;SDS011;59082;50.658;4.608;2022-09-03T06:01:08;3.50;;;3.17;;
71296;SDS011;59082;50.658;4.608;2022-09-03T06:03:44;3.22;;;2.97;;
71296;SDS011;59082;50.658;4.608;2022-09-03T06:06:11;3.80;;;3.50;;
71296;SDS011;59082;50.658;4.608;2022-09-03T06:08:38;4.95;;;3.55;;
71296;SDS011;59082;50.658;4.608;2022-09-03T06:11:04;5.60;;;3.70;;
71296;SDS011;59082;50.658;4.608;2022-09-03T06:13:30;4.40;;;3.60;;
71296;SDS011;59082;50.658;4.608;2022-09-03T06:16:01;4.53;;;4.13;;
71296;SDS011;59082;50.658;4.608;2022-09-03T06:18:28;4.07;;;3.30;;
71296;SDS011;59082;50.658;4.608;2022-09-03T06:20:58;4.85;;;4.45;;
71296;SDS011;59082;50.658;4.608;2022-09-03T06:23:26;5.70;;;3.60;;
71296;SDS011;59082;50.658;4.608;2022-09-03T06:28:29;5.00;;;3.70;;
71296;SDS011;59082;50.658;4.608;2022-09-03T06:30:59;3.60;;;3.30;;
71296;SDS011;59082;50.658;4.608;2022-09-03T06:33:28;3.90;;;3.50;;
71296;SDS011;59082;50.658;4.608;2022-09-03T06:35:55;9.10;;;3.80;;
71296;SDS011;59082;50.658;4.608;2022-09-03T06:38:23;3.00;;;2.78;;
71296;SDS011;59082;50.658;4.608;2022-09-03T06:40:55;2.95;;;2.28;;
71296;SDS011;59082;50.658;4.608;2022-09-03T06:43:25;4.80;;;3.07;;
71296;SDS011;59082;50.658;4.608;2022-09-03T06:45:53;5.70;;;3.75;;
71296;SDS011;59082;50.658;4.608;2022-09-03T06:48:23;4.45;;;3.33;;
71296;SDS011;59082;50.658;4.608;2022-09-03T06:50:56;4.07;;;3.67;;
71296;SDS011;59082;50.658;4.608;2022-09-03T06:53:24;4.55;;;3.25;;
71296;SDS011;59082;50.658;4.608;2022-09-03T06:55:55;5.93;;;3.30;;
71296;SDS011;59082;50.658;4.608;2022-09-03T06:58:22;3.42;;;3.13;;
71296;SDS011;59082;50.658;4.608;2022-09-03T07:00:48;3.83;;;3.05;;
71296;SDS011;59082;50.658;4.608;2022-09-03T07:03:14;3.33;;;3.00;;
71296;SDS011;59082;50.658;4.608;2022-09-03T07:05:41;3.93;;;2.83;;
71296;SDS011;59082;50.658;4.608;2022-09-03T07:08:08;3.55;;;3.25;;
71296;SDS011;59082;50.658;4.608;2022-09-03T07:10:35;5.18;;;3.10;;
71296;SDS011;59082;50.658;4.608;2022-09-03T07:13:01;3.20;;;2.90;;
71296;SDS011;59082;50.658;4.608;2022-09-03T07:15:28;3.30;;;2.90;;
71296;SDS011;59082;50.658;4.608;2022-09-03T07:17:53;3.03;;;2.73;;
71296;SDS011;59082;50.658;4.608;2022-09-03T07:20:19;6.07;;;3.25;;
71296;SDS011;59082;50.658;4.608;2022-09-03T07:22:45;3.60;;;3.27;;
71296;SDS011;59082;50.658;4.608;2022-09-03T07:25:10;6.63;;;3.23;;
71296;SDS011;59082;50.658;4.608;2022-09-03T07:27:36;2.72;;;2.38;;
71296;SDS011;59082;50.658;4.608;2022-09-03T07:30:01;3.97;;;2.80;;
71296;SDS011;59082;50.658;4.608;2022-09-03T07:32:27;4.10;;;2.33;;
71296;SDS011;59082;50.658;4.608;2022-09-03T07:34:53;3.40;;;2.57;;
71296;SDS011;59082;50.658;4.608;2022-09-03T07:37:19;4.57;;;2.40;;
71296;SDS011;59082;50.658;4.608;2022-09-03T07:39:44;3.13;;;2.07;;
71296;SDS011;59082;50.658;4.608;2022-09-03T07:42:10;4.55;;;2.33;;
71296;SDS011;59082;50.658;4.608;2022-09-03T07:44:36;3.47;;;2.33;;
71296;SDS011;59082;50.658;4.608;2022-09-03T07:47:02;3.80;;;2.65;;
71296;SDS011;59082;50.658;4.608;2022-09-03T07:49:27;2.63;;;2.43;;
71296;SDS011;59082;50.658;4.608;2022-09-03T07:51:52;2.50;;;2.20;;
71296;SDS011;59082;50.658;4.608;2022-09-03T07:54:18;2.35;;;1.92;;
71296;SDS011;59082;50.658;4.608;2022-09-03T07:56:45;2.77;;;2.20;;
71296;SDS011;59082;50.658;4.608;2022-09-03T07:59:11;3.90;;;2.03;;
71296;SDS011;59082;50.658;4.608;2022-09-03T08:01:36;2.60;;;1.90;;
71296;SDS011;59082;50.658;4.608;2022-09-03T08:04:02;4.18;;;2.28;;
71296;SDS011;59082;50.658;4.608;2022-09-03T08:06:32;4.70;;;1.77;;
71296;SDS011;59082;50.658;4.608;2022-09-03T08:09:02;2.13;;;1.70;;
71296;SDS011;59082;50.658;4.608;2022-09-03T08:11:29;5.63;;;2.00;;
71296;SDS011;59082;50.658;4.608;2022-09-03T08:13:57;4.03;;;1.98;;
71296;SDS011;59082;50.658;4.608;2022-09-03T08:16:26;3.33;;;2.30;;
71296;SDS011;59082;50.658;4.608;2022-09-03T08:18:53;2.75;;;2.03;;
71296;SDS011;59082;50.658;4.608;2022-09-03T08:21:18;3.92;;;1.77;;
71296;SDS011;59082;50.658;4.608;2022-09-03T08:23:45;3.00;;;2.00;;
71296;SDS011;59082;50.658;4.608;2022-09-03T08:26:12;3.87;;;2.10;;
71296;SDS011;59082;50.658;4.608;2022-09-03T08:28:39;5.53;;;1.92;;
71296;SDS011;59082;50.658;4.608;2022-09-03T08:31:07;4.82;;;2.00;;
71296;SDS011;59082;50.658;4.608;2022-09-03T08:33:35;2.50;;;2.30;;
71296;SDS011;59082;50.658;4.608;2022-09-03T08:36:12;3.75;;;1.88;;
71296;SDS011;59082;50.658;4.608;2022-09-03T08:38:38;3.77;;;2.23;;
71296;SDS011;59082;50.658;4.608;2022-09-03T08:41:10;3.88;;;2.30;;
71296;SDS011;59082;50.658;4.608;2022-09-03T08:57:48;5.05;;;2.50;;
71296;SDS011;59082;50.658;4.608;2022-09-03T09:00:40;4.15;;;2.22;;
71296;SDS011;59082;50.658;4.608;2022-09-03T09:17:35;4.57;;;2.22;;
71296;SDS011;59082;50.658;4.608;2022-09-03T09:20:39;4.20;;;2.10;;
71296;SDS011;59082;50.658;4.608;2022-09-03T09:23:13;5.97;;;2.22;;
71296;SDS011;59082;50.658;4.608;2022-09-03T09:25:51;3.00;;;2.25;;
71296;SDS011;59082;50.658;4.608;2022-09-03T09:28:20;3.33;;;2.40;;
71296;SDS011;59082;50.658;4.608;2022-09-03T09:30:48;2.80;;;2.42;;
71296;SDS011;59082;50.658;4.608;2022-09-03T09:33:15;6.23;;;2.50;;
71296;SDS011;59082;50.658;4.608;2022-09-03T09:35:42;3.60;;;2.35;;
71296;SDS011;59082;50.658;4.608;2022-09-03T09:38:09;3.42;;;2.30;;
71296;SDS011;59082;50.658;4.608;2022-09-03T09:40:39;2.72;;;2.25;;
71296;SDS011;59082;50.658;4.608;2022-09-03T09:43:17;2.65;;;2.13;;
71296;SDS011;59082;50.658;4.608;2022-09-03T09:45:48;4.63;;;2.47;;
71296;SDS011;59082;50.658;4.608;2022-09-03T09:51:17;5.78;;;3.03;;
71296;SDS011;59082;50.658;4.608;2022-09-03T09:53:45;3.00;;;2.20;;
71296;SDS011;59082;50.658;4.608;2022-09-03T09:56:24;3.58;;;2.65;;
71296;SDS011;59082;50.658;4.608;2022-09-03T09:59:00;3.10;;;2.40;;
71296;SDS011;59082;50.658;4.608;2022-09-03T10:01:29;2.70;;;2.50;;
71296;SDS011;59082;50.658;4.608;2022-09-03T10:03:59;7.22;;;2.95;;
71296;SDS011;59082;50.658;4.608;2022-09-03T10:06:34;3.20;;;2.50;;
71296;SDS011;59082;50.658;4.608;2022-09-03T10:09:19;3.55;;;2.70;;
71296;SDS011;59082;50.658;4.608;2022-09-03T10:11:59;4.87;;;2.40;;
71296;SDS011;59082;50.658;4.608;2022-09-03T10:14:52;3.40;;;2.47;;
71296;SDS011;59082;50.658;4.608;2022-09-03T10:17:26;3.00;;;2.30;;
71296;SDS011;59082;50.658;4.608;2022-09-03T10:20:11;5.78;;;2.83;;
71296;SDS011;59082;50.658;4.608;2022-09-03T10:22:56;3.25;;;2.78;;
71296;SDS011;59082;50.658;4.608;2022-09-03T10:25:42;4.33;;;2.70;;
71296;SDS011;59082;50.658;4.608;2022-09-03T10:28:17;2.80;;;2.47;;
71296;SDS011;59082;50.658;4.608;2022-09-03T10:33:33;4.45;;;2.70;;
71296;SDS011;59082;50.658;4.608;2022-09-03T10:36:10;4.90;;;2.78;;
71296;SDS011;59082;50.658;4.608;2022-09-03T10:38:59;3.30;;;2.57;;
71296;SDS011;59082;50.658;4.608;2022-09-03T10:46:46;3.97;;;2.97;;
71296;SDS011;59082;50.658;4.608;2022-09-03T10:53:15;3.23;;;2.93;;
71296;SDS011;59082;50.658;4.608;2022-09-03T11:01:09;3.95;;;3.63;;
71296;SDS011;59082;50.658;4.608;2022-09-03T11:03:44;3.45;;;3.15;;
71296;SDS011;59082;50.658;4.608;2022-09-03T11:07:00;5.90;;;3.67;;
71296;SDS011;59082;50.658;4.608;2022-09-03T11:11:50;5.95;;;3.17;;
71296;SDS011;59082;50.658;4.608;2022-09-03T11:14:30;3.90;;;3.25;;
71296;SDS011;59082;50.658;4.608;2022-09-03T11:17:08;4.05;;;2.85;;
71296;SDS011;59082;50.658;4.608;2022-09-03T11:19:44;3.50;;;3.00;;
71296;SDS011;59082;50.658;4.608;2022-09-03T11:22:15;5.78;;;2.85;;
71296;SDS011;59082;50.658;4.608;2022-09-03T11:24:52;4.90;;;3.60;;
71296;SDS011;59082;50.658;4.608;2022-09-03T11:27:25;3.78;;;3.00;;
71296;SDS011;59082;50.658;4.608;2022-09-03T11:30:04;5.30;;;3.50;;
71296;SDS011;59082;50.658;4.608;2022-09-03T11:32:40;5.13;;;2.50;;
71296;SDS011;59082;50.658;4.608;2022-09-03T11:35:15;3.67;;;2.53;;
71296;SDS011;59082;50.658;4.608;2022-09-03T11:38:30;8.48;;;3.67;;
71296;SDS011;59082;50.658;4.608;2022-09-03T11:40:59;4.28;;;2.92;;
71296;SDS011;59082;50.658;4.608;2022-09-03T11:43:27;5.40;;;3.20;;
71296;SDS011;59082;50.658;4.608;2022-09-03T11:48:46;8.23;;;3.58;;
71296;SDS011;59082;50.658;4.608;2022-09-03T11:54:41;4.20;;;2.97;;
71296;SDS011;59082;50.658;4.608;2022-09-03T11:56:45;3.97;;;2.55;;
71296;SDS011;59082;50.658;4.608;2022-09-03T12:01:55;3.92;;;2.55;;
71296;SDS011;59082;50.658;4.608;2022-09-03T12:04:38;6.28;;;2.92;;
71296;SDS011;59082;50.658;4.608;2022-09-03T12:07:52;5.65;;;2.72;;
71296;SDS011;59082;50.658;4.608;2022-09-03T12:13:01;2.90;;;2.37;;
71296;SDS011;59082;50.658;4.608;2022-09-03T12:18:36;3.75;;;2.45;;
71296;SDS011;59082;50.658;4.608;2022-09-03T12:21:04;4.75;;;2.20;;
71296;SDS011;59082;50.658;4.608;2022-09-03T12:23:43;2.28;;;2.00;;
71296;SDS011;59082;50.658;4.608;2022-09-03T12:26:20;3.43;;;2.10;;
71296;SDS011;59082;50.658;4.608;2022-09-03T12:28:49;2.65;;;2.10;;
71296;SDS011;59082;50.658;4.608;2022-09-03T12:31:22;3.38;;;2.00;;
71296;SDS011;59082;50.658;4.608;2022-09-03T12:34:00;5.35;;;2.83;;
71296;SDS011;59082;50.658;4.608;2022-09-03T12:39:19;3.77;;;2.53;;
71296;SDS011;59082;50.658;4.608;2022-09-03T12:42:05;3.13;;;2.20;;
71296;SDS011;59082;50.658;4.608;2022-09-03T12:49:43;3.55;;;2.50;;
71296;SDS011;59082;50.658;4.608;2022-09-03T12:52:18;4.77;;;2.57;;
71296;SDS011;59082;50.658;4.608;2022-09-03T12:57:19;5.03;;;2.50;;
71296;SDS011;59082;50.658;4.608;2022-09-03T12:59:48;3.83;;;2.40;;
71296;SDS011;59082;50.658;4.608;2022-09-03T13:02:23;2.92;;;2.17;;
71296;SDS011;59082;50.658;4.608;2022-09-03T13:04:53;3.63;;;1.83;;
71296;SDS011;59082;50.658;4.608;2022-09-03T13:07:27;3.08;;;1.88;;
71296;SDS011;59082;50.658;4.608;2022-09-03T13:10:00;4.28;;;2.28;;
71296;SDS011;59082;50.658;4.608;2022-09-03T13:12:32;2.90;;;2.42;;
71296;SDS011;59082;50.658;4.608;2022-09-03T13:15:06;2.20;;;1.85;;
71296;SDS011;59082;50.658;4.608;2022-09-03T13:17:47;3.47;;;2.00;;
71296;SDS011;59082;50.658;4.608;2022-09-03T13:23:27;2.90;;;1.90;;
71296;SDS011;59082;50.658;4.608;2022-09-03T13:29:23;2.47;;;1.60;;
71296;SDS011;59082;50.658;4.608;2022-09-03T13:31:57;3.23;;;1.77;;
71296;SDS011;59082;50.658;4.608;2022-09-03T13:34:38;1.60;;;1.35;;
71296;SDS011;59082;50.658;4.608;2022-09-03T13:39:53;2.33;;;1.70;;
71296;SDS011;59082;50.658;4.608;2022-09-03T13:48:00;2.50;;;1.25;;
71296;SDS011;59082;50.658;4.608;2022-09-03T13:50:48;3.50;;;1.83;;
71296;SDS011;59082;50.658;4.608;2022-09-03T13:53:30;2.75;;;1.10;;
71296;SDS011;59082;50.658;4.608;2022-09-03T13:59:46;1.87;;;1.70;;
71296;SDS011;59082;50.658;4.608;2022-09-03T14:25:00;2.72;;;2.10;;
71296;SDS011;59082;50.658;4.608;2022-09-03T14:27:33;2.43;;;1.70;;
71296;SDS011;59082;50.658;4.608;2022-09-03T14:30:01;2.63;;;1.80;;
71296;SDS011;59082;50.658;4.608;2022-09-03T14:38:54;2.85;;;1.70;;
71296;SDS011;59082;50.658;4.608;2022-09-03T14:53:01;3.63;;;2.25;;
71296;SDS011;59082;50.658;4.608;2022-09-03T14:55:55;3.73;;;2.10;;
71296;SDS011;59082;50.658;4.608;2022-09-03T14:59:06;4.28;;;1.70;;
71296;SDS011;59082;50.658;4.608;2022-09-03T15:01:38;3.05;;;1.80;;
71296;SDS011;59082;50.658;4.608;2022-09-03T15:04:26;3.63;;;2.10;;
71296;SDS011;59082;50.658;4.608;2022-09-03T15:12:45;5.03;;;2.13;;
71296;SDS011;59082;50.658;4.608;2022-09-03T15:15:17;2.60;;;2.10;;
71296;SDS011;59082;50.658;4.608;2022-09-03T15:20:49;2.67;;;2.28;;
71296;SDS011;59082;50.658;4.608;2022-09-03T15:29:36;3.08;;;2.05;;
71296;SDS011;59082;50.658;4.608;2022-09-03T15:37:51;3.40;;;1.40;;
71296;SDS011;59082;50.658;4.608;2022-09-03T15:40:28;3.00;;;0.97;;
71296;SDS011;59082;50.658;4.608;2022-09-03T15:46:02;0.93;;;0.20;;
71296;SDS011;59082;50.658;4.608;2022-09-03T16:00:37;2.15;;;0.28;;
71296;SDS011;59082;50.658;4.608;2022-09-03T16:03:10;1.25;;;0.55;;
71296;SDS011;59082;50.658;4.608;2022-09-03T16:09:04;2.20;;;0.70;;
71296;SDS011;59082;50.658;4.608;2022-09-03T16:11:55;2.28;;;0.80;;
71296;SDS011;59082;50.658;4.608;2022-09-03T16:20:57;1.27;;;0.65;;
71296;SDS011;59082;50.658;4.608;2022-09-03T16:43:24;1.73;;;0.70;;
71296;SDS011;59082;50.658;4.608;2022-09-03T16:46:08;1.05;;;0.57;;
71296;SDS011;59082;50.658;4.608;2022-09-03T16:51:32;2.10;;;0.30;;
71296;SDS011;59082;50.658;4.608;2022-09-03T16:56:58;2.22;;;0.73;;
71296;SDS011;59082;50.658;4.608;2022-09-03T16:59:40;4.22;;;1.00;;
71296;SDS011;59082;50.658;4.608;2022-09-03T17:10:30;2.15;;;0.93;;
71296;SDS011;59082;50.658;4.608;2022-09-03T17:18:49;2.07;;;1.40;;
71296;SDS011;59082;50.658;4.608;2022-09-03T17:24:20;2.50;;;1.00;;
71296;SDS011;59082;50.658;4.608;2022-09-03T17:36:25;1.52;;;1.00;;
71296;SDS011;59082;50.658;4.608;2022-09-03T17:41:52;1.00;;;0.40;;
71296;SDS011;59082;50.658;4.608;2022-09-03T17:47:30;2.40;;;1.00;;
71296;SDS011;59082;50.658;4.608;2022-09-03T17:50:22;1.95;;;0.73;;
71296;SDS011;59082;50.658;4.608;2022-09-03T17:52:54;3.33;;;1.15;;
71296;SDS011;59082;50.658;4.608;2022-09-03T17:55:31;1.65;;;1.05;;
71296;SDS011;59082;50.658;4.608;2022-09-03T17:58:02;2.05;;;1.50;;
71296;SDS011;59082;50.658;4.608;2022-09-03T18:00:41;1.83;;;0.90;;
71296;SDS011;59082;50.658;4.608;2022-09-03T18:03:18;2.15;;;1.50;;
71296;SDS011;59082;50.658;4.608;2022-09-03T18:06:00;3.78;;;1.20;;
71296;SDS011;59082;50.658;4.608;2022-09-03T18:08:42;2.63;;;1.40;;
71296;SDS011;59082;50.658;4.608;2022-09-03T18:11:18;2.78;;;1.63;;
71296;SDS011;59082;50.658;4.608;2022-09-03T18:16:44;1.85;;;1.63;;
71296;SDS011;59082;50.658;4.608;2022-09-03T18:19:50;2.35;;;1.50;;
71296;SDS011;59082;50.658;4.608;2022-09-03T18:26:05;2.40;;;1.77;;
71296;SDS011;59082;50.658;4.608;2022-09-03T18:29:13;2.50;;;1.30;;
71296;SDS011;59082;50.658;4.608;2022-09-03T18:31:59;5.13;;;2.05;;
71296;SDS011;59082;50.658;4.608;2022-09-03T18:34:44;2.85;;;1.70;;
71296;SDS011;59082;50.658;4.608;2022-09-03T18:37:30;2.63;;;1.88;;
71296;SDS011;59082;50.658;4.608;2022-09-03T18:40:27;2.95;;;1.45;;
71296;SDS011;59082;50.658;4.608;2022-09-03T18:58:04;2.67;;;1.87;;
71296;SDS011;59082;50.658;4.608;2022-09-03T19:01:02;2.72;;;2.00;;
71296;SDS011;59082;50.658;4.608;2022-09-03T19:07:10;3.40;;;2.30;;
71296;SDS011;59082;50.658;4.608;2022-09-03T19:10:05;2.63;;;2.40;;
71296;SDS011;59082;50.658;4.608;2022-09-03T19:16:16;2.17;;;1.98;;
71296;SDS011;59082;50.658;4.608;2022-09-03T19:22:37;2.63;;;2.22;;
71296;SDS011;59082;50.658;4.608;2022-09-03T19:25:22;3.40;;;2.70;;
71296;SDS011;59082;50.658;4.608;2022-09-03T19:28:13;3.03;;;2.53;;
71296;SDS011;59082;50.658;4.608;2022-09-03T19:37:02;2.20;;;2.00;;
71296;SDS011;59082;50.658;4.608;2022-09-03T19:49:21;3.30;;;3.00;;
71296;SDS011;59082;50.658;4.608;2022-09-03T19:55:37;3.53;;;3.22;;
71296;SDS011;59082;50.658;4.608;2022-09-03T19:58:25;3.83;;;2.97;;
71296;SDS011;59082;50.658;4.608;2022-09-03T20:01:12;3.22;;;2.92;;
71296;SDS011;59082;50.658;4.608;2022-09-03T20:03:57;4.10;;;3.25;;
71296;SDS011;59082;50.658;4.608;2022-09-03T20:06:43;4.65;;;3.70;;
71296;SDS011;59082;50.658;4.608;2022-09-03T20:09:29;3.90;;;3.40;;
71296;SDS011;59082;50.658;4.608;2022-09-03T20:12:21;4.67;;;3.30;;
71296;SDS011;59082;50.658;4.608;2022-09-03T20:14:49;5.60;;;3.10;;
71296;SDS011;59082;50.658;4.608;2022-09-03T20:17:19;4.03;;;3.63;;
71296;SDS011;59082;50.658;4.608;2022-09-03T20:31:11;5.43;;;4.43;;
71296;SDS011;59082;50.658;4.608;2022-09-03T20:58:44;5.25;;;3.88;;
71296;SDS011;59082;50.658;4.608;2022-09-03T21:01:33;4.65;;;4.20;;
71296;SDS011;59082;50.658;4.608;2022-09-03T21:09:38;5.50;;;3.90;;
71296;SDS011;59082;50.658;4.608;2022-09-03T21:14:50;5.43;;;4.53;;
71296;SDS011;59082;50.658;4.608;2022-09-03T21:26:09;4.55;;;3.97;;
71296;SDS011;59082;50.658;4.608;2022-09-03T21:29:05;4.18;;;3.70;;
71296;SDS011;59082;50.658;4.608;2022-09-03T21:31:34;6.30;;;3.72;;
71296;SDS011;59082;50.658;4.608;2022-09-03T21:34:11;4.73;;;4.23;;
71296;SDS011;59082;50.658;4.608;2022-09-03T21:36:43;5.75;;;4.15;;
71296;SDS011;59082;50.658;4.608;2022-09-03T21:39:27;5.13;;;4.45;;
71296;SDS011;59082;50.658;4.608;2022-09-03T21:42:02;5.78;;;4.68;;
71296;SDS011;59082;50.658;4.608;2022-09-03T21:49:40;5.82;;;5.03;;
71296;SDS011;59082;50.658;4.608;2022-09-03T21:52:34;5.13;;;4.63;;
71296;SDS011;59082;50.658;4.608;2022-09-03T21:55:20;5.13;;;4.63;;
71296;SDS011;59082;50.658;4.608;2022-09-03T22:00:39;5.85;;;4.57;;
71296;SDS011;59082;50.658;4.608;2022-09-03T22:03:05;7.60;;;5.20;;
71296;SDS011;59082;50.658;4.608;2022-09-03T22:05:52;5.20;;;4.38;;
71296;SDS011;59082;50.658;4.608;2022-09-03T22:08:57;4.75;;;3.55;;
71296;SDS011;59082;50.658;4.608;2022-09-03T22:11:26;6.22;;;4.25;;
71296;SDS011;59082;50.658;4.608;2022-09-03T22:16:25;5.43;;;4.22;;
71296;SDS011;59082;50.658;4.608;2022-09-03T22:18:56;6.25;;;3.58;;
71296;SDS011;59082;50.658;4.608;2022-09-03T22:26:46;6.27;;;3.80;;
71296;SDS011;59082;50.658;4.608;2022-09-03T22:32:01;5.38;;;3.95;;
71296;SDS011;59082;50.658;4.608;2022-09-03T22:34:34;4.63;;;4.15;;
71296;SDS011;59082;50.658;4.608;2022-09-03T22:37:04;6.03;;;3.78;;
71296;SDS011;59082;50.658;4.608;2022-09-03T22:39:45;3.63;;;3.27;;